sensor_id;sensor_type;location;lat;lon;timestamp;P1;durP1;ratioP1;P2;durP2;ratioP2
70981;SDS011;58640;51.320;9.456;2023-02-28T00:00:42;1.65;;;1.55;;
70981;SDS011;58640;51.320;9.456;2023-02-28T00:03:08;3.13;;;1.90;;
70981;SDS011;58640;51.320;9.456;2023-02-28T00:05:33;2.50;;;1.33;;
70981;SDS011;58640;51.320;9.456;2023-02-28T00:07:59;4.53;;;1.90;;
70981;SDS011;58640;51.320;9.456;2023-02-28T00:10:26;4.68;;;1.77;;
70981;SDS011;58640;51.320;9.456;2023-02-28T00:12:54;2.40;;;1.53;;
70981;SDS011;58640;51.320;9.456;2023-02-28T00:15:22;2.40;;;1.70;;
70981;SDS011;58640;51.320;9.456;2023-02-28T00:17:48;5.70;;;1.53;;
70981;SDS011;58640;51.320;9.456;2023-02-28T00:20:14;1.40;;;1.20;;
70981;SDS011;58640;51.320;9.456;2023-02-28T00:22:41;2.13;;;1.40;;
70981;SDS011;58640;51.320;9.456;2023-02-28T00:25:08;1.30;;;1.20;;
70981;SDS011;58640;51.320;9.456;2023-02-28T00:27:35;2.88;;;1.73;;
70981;SDS011;58640;51.320;9.456;2023-02-28T00:30:02;1.90;;;1.33;;
70981;SDS011;58640;51.320;9.456;2023-02-28T00:32:28;3.75;;;1.70;;
70981;SDS011;58640;51.320;9.456;2023-02-28T00:34:53;4.45;;;1.50;;
70981;SDS011;58640;51.320;9.456;2023-02-28T00:37:18;4.03;;;1.37;;
70981;SDS011;58640;51.320;9.456;2023-02-28T00:39:43;1.73;;;1.40;;
70981;SDS011;58640;51.320;9.456;2023-02-28T00:42:09;3.20;;;1.80;;
70981;SDS011;58640;51.320;9.456;2023-02-28T00:44:34;1.50;;;1.15;;
70981;SDS011;58640;51.320;9.456;2023-02-28T00:46:59;2.83;;;1.20;;
70981;SDS011;58640;51.320;9.456;2023-02-28T00:49:26;2.72;;;1.45;;
70981;SDS011;58640;51.320;9.456;2023-02-28T00:51:52;3.00;;;1.40;;
70981;SDS011;58640;51.320;9.456;2023-02-28T00:54:18;2.72;;;1.48;;
70981;SDS011;58640;51.320;9.456;2023-02-28T00:56:44;1.80;;;1.60;;
70981;SDS011;58640;51.320;9.456;2023-02-28T00:59:10;2.20;;;1.30;;
70981;SDS011;58640;51.320;9.456;2023-02-28T01:01:36;2.78;;;1.83;;
70981;SDS011;58640;51.320;9.456;2023-02-28T01:04:01;7.30;;;1.60;;
70981;SDS011;58640;51.320;9.456;2023-02-28T01:06:28;2.55;;;1.40;;
70981;SDS011;58640;51.320;9.456;2023-02-28T01:08:53;2.63;;;1.50;;
70981;SDS011;58640;51.320;9.456;2023-02-28T01:11:18;3.05;;;1.45;;
70981;SDS011;58640;51.320;9.456;2023-02-28T01:13:45;5.63;;;1.90;;
70981;SDS011;58640;51.320;9.456;2023-02-28T01:16:11;1.77;;;1.40;;
70981;SDS011;58640;51.320;9.456;2023-02-28T01:18:37;3.45;;;2.05;;
70981;SDS011;58640;51.320;9.456;2023-02-28T01:21:04;4.03;;;1.92;;
70981;SDS011;58640;51.320;9.456;2023-02-28T01:23:30;4.83;;;1.90;;
70981;SDS011;58640;51.320;9.456;2023-02-28T01:25:55;4.50;;;2.17;;
70981;SDS011;58640;51.320;9.456;2023-02-28T01:28:21;4.43;;;2.55;;
70981;SDS011;58640;51.320;9.456;2023-02-28T01:30:49;4.13;;;1.73;;
70981;SDS011;58640;51.320;9.456;2023-02-28T01:33:15;5.00;;;2.67;;
70981;SDS011;58640;51.320;9.456;2023-02-28T01:35:40;2.90;;;1.73;;
70981;SDS011;58640;51.320;9.456;2023-02-28T01:38:06;5.57;;;2.10;;
70981;SDS011;58640;51.320;9.456;2023-02-28T01:40:31;3.60;;;1.40;;
70981;SDS011;58640;51.320;9.456;2023-02-28T01:42:57;2.92;;;2.08;;
70981;SDS011;58640;51.320;9.456;2023-02-28T01:45:26;6.18;;;1.70;;
70981;SDS011;58640;51.320;9.456;2023-02-28T01:47:58;2.10;;;1.35;;
70981;SDS011;58640;51.320;9.456;2023-02-28T01:50:29;1.33;;;1.25;;
70981;SDS011;58640;51.320;9.456;2023-02-28T01:53:00;2.40;;;1.52;;
70981;SDS011;58640;51.320;9.456;2023-02-28T01:55:29;2.88;;;1.50;;
70981;SDS011;58640;51.320;9.456;2023-02-28T01:57:56;5.22;;;1.95;;
70981;SDS011;58640;51.320;9.456;2023-02-28T02:00:25;1.63;;;1.45;;
70981;SDS011;58640;51.320;9.456;2023-02-28T02:02:53;2.42;;;1.42;;
70981;SDS011;58640;51.320;9.456;2023-02-28T02:05:26;3.25;;;1.63;;
70981;SDS011;58640;51.320;9.456;2023-02-28T02:08:06;1.75;;;1.30;;
70981;SDS011;58640;51.320;9.456;2023-02-28T02:15:48;2.50;;;1.48;;
70981;SDS011;58640;51.320;9.456;2023-02-28T02:19:03;1.08;;;1.00;;
70981;SDS011;58640;51.320;9.456;2023-02-28T02:21:37;4.13;;;1.27;;
70981;SDS011;58640;51.320;9.456;2023-02-28T02:24:24;1.58;;;1.30;;
70981;SDS011;58640;51.320;9.456;2023-02-28T02:27:13;1.90;;;1.20;;
70981;SDS011;58640;51.320;9.456;2023-02-28T02:29:47;1.98;;;1.40;;
70981;SDS011;58640;51.320;9.456;2023-02-28T02:37:50;1.88;;;1.17;;
70981;SDS011;58640;51.320;9.456;2023-02-28T02:40:27;1.70;;;1.23;;
70981;SDS011;58640;51.320;9.456;2023-02-28T02:45:28;2.35;;;1.33;;
70981;SDS011;58640;51.320;9.456;2023-02-28T02:48:08;1.42;;;1.33;;
70981;SDS011;58640;51.320;9.456;2023-02-28T02:50:38;2.47;;;1.10;;
70981;SDS011;58640;51.320;9.456;2023-02-28T02:53:08;1.88;;;1.30;;
70981;SDS011;58640;51.320;9.456;2023-02-28T02:55:37;2.03;;;1.10;;
70981;SDS011;58640;51.320;9.456;2023-02-28T02:58:07;1.70;;;1.35;;
70981;SDS011;58640;51.320;9.456;2023-02-28T03:00:39;1.52;;;0.98;;
70981;SDS011;58640;51.320;9.456;2023-02-28T03:03:07;1.98;;;1.40;;
70981;SDS011;58640;51.320;9.456;2023-02-28T03:05:44;1.30;;;1.17;;
70981;SDS011;58640;51.320;9.456;2023-02-28T03:08:12;1.75;;;1.38;;
70981;SDS011;58640;51.320;9.456;2023-02-28T03:10:39;1.00;;;1.00;;
70981;SDS011;58640;51.320;9.456;2023-02-28T03:16:09;1.73;;;1.20;;
70981;SDS011;58640;51.320;9.456;2023-02-28T03:24:40;2.55;;;0.90;;
70981;SDS011;58640;51.320;9.456;2023-02-28T03:29:56;1.95;;;1.20;;
70981;SDS011;58640;51.320;9.456;2023-02-28T03:32:28;1.27;;;1.15;;
70981;SDS011;58640;51.320;9.456;2023-02-28T03:37:38;0.95;;;0.95;;
70981;SDS011;58640;51.320;9.456;2023-02-28T03:40:14;1.63;;;1.13;;
70981;SDS011;58640;51.320;9.456;2023-02-28T03:42:44;1.23;;;1.13;;
70981;SDS011;58640;51.320;9.456;2023-02-28T03:45:14;1.45;;;1.10;;
70981;SDS011;58640;51.320;9.456;2023-02-28T03:47:53;1.00;;;1.00;;
70981;SDS011;58640;51.320;9.456;2023-02-28T03:50:24;1.50;;;1.30;;
70981;SDS011;58640;51.320;9.456;2023-02-28T03:53:04;2.83;;;1.20;;
70981;SDS011;58640;51.320;9.456;2023-02-28T03:55:37;2.15;;;1.23;;
70981;SDS011;58640;51.320;9.456;2023-02-28T04:00:55;2.13;;;1.23;;
70981;SDS011;58640;51.320;9.456;2023-02-28T04:03:32;3.47;;;1.70;;
70981;SDS011;58640;51.320;9.456;2023-02-28T04:05:58;1.50;;;1.35;;
70981;SDS011;58640;51.320;9.456;2023-02-28T04:08:24;1.50;;;1.40;;
70981;SDS011;58640;51.320;9.456;2023-02-28T04:13:43;1.38;;;1.20;;
70981;SDS011;58640;51.320;9.456;2023-02-28T04:16:08;4.32;;;1.30;;
70981;SDS011;58640;51.320;9.456;2023-02-28T04:18:38;1.15;;;1.13;;
70981;SDS011;58640;51.320;9.456;2023-02-28T04:21:04;1.92;;;1.70;;
70981;SDS011;58640;51.320;9.456;2023-02-28T04:23:30;1.83;;;1.60;;
70981;SDS011;58640;51.320;9.456;2023-02-28T04:25:56;1.65;;;1.30;;
70981;SDS011;58640;51.320;9.456;2023-02-28T04:28:21;2.75;;;1.80;;
70981;SDS011;58640;51.320;9.456;2023-02-28T04:30:46;3.58;;;1.65;;
70981;SDS011;58640;51.320;9.456;2023-02-28T04:33:12;1.67;;;1.58;;
70981;SDS011;58640;51.320;9.456;2023-02-28T04:35:37;2.00;;;1.25;;
70981;SDS011;58640;51.320;9.456;2023-02-28T04:38:02;1.92;;;1.50;;
70981;SDS011;58640;51.320;9.456;2023-02-28T04:40:28;2.92;;;1.10;;
70981;SDS011;58640;51.320;9.456;2023-02-28T04:42:53;4.53;;;1.70;;
70981;SDS011;58640;51.320;9.456;2023-02-28T04:45:19;2.27;;;1.30;;
70981;SDS011;58640;51.320;9.456;2023-02-28T04:47:44;2.10;;;1.38;;
70981;SDS011;58640;51.320;9.456;2023-02-28T04:50:09;2.75;;;1.60;;
70981;SDS011;58640;51.320;9.456;2023-02-28T04:52:35;2.45;;;2.08;;
70981;SDS011;58640;51.320;9.456;2023-02-28T04:55:00;5.90;;;2.17;;
70981;SDS011;58640;51.320;9.456;2023-02-28T04:57:26;3.20;;;2.50;;
70981;SDS011;58640;51.320;9.456;2023-02-28T04:59:51;3.15;;;2.10;;
70981;SDS011;58640;51.320;9.456;2023-02-28T05:02:17;3.00;;;1.88;;
70981;SDS011;58640;51.320;9.456;2023-02-28T05:04:42;4.35;;;1.65;;
70981;SDS011;58640;51.320;9.456;2023-02-28T05:07:07;1.67;;;1.58;;
70981;SDS011;58640;51.320;9.456;2023-02-28T05:09:33;3.25;;;1.50;;
70981;SDS011;58640;51.320;9.456;2023-02-28T05:11:58;2.90;;;1.67;;
70981;SDS011;58640;51.320;9.456;2023-02-28T05:14:23;2.75;;;1.55;;
70981;SDS011;58640;51.320;9.456;2023-02-28T05:16:49;3.38;;;1.13;;
70981;SDS011;58640;51.320;9.456;2023-02-28T05:19:14;1.92;;;1.30;;
70981;SDS011;58640;51.320;9.456;2023-02-28T05:21:40;3.72;;;1.92;;
70981;SDS011;58640;51.320;9.456;2023-02-28T05:24:13;2.65;;;1.60;;
70981;SDS011;58640;51.320;9.456;2023-02-28T05:26:42;2.13;;;1.55;;
70981;SDS011;58640;51.320;9.456;2023-02-28T05:29:08;10.80;;;1.45;;
70981;SDS011;58640;51.320;9.456;2023-02-28T05:31:34;1.75;;;1.60;;
70981;SDS011;58640;51.320;9.456;2023-02-28T05:34:00;2.30;;;1.48;;
70981;SDS011;58640;51.320;9.456;2023-02-28T05:36:25;3.38;;;2.08;;
70981;SDS011;58640;51.320;9.456;2023-02-28T05:38:51;4.53;;;2.15;;
70981;SDS011;58640;51.320;9.456;2023-02-28T05:41:17;3.17;;;1.60;;
70981;SDS011;58640;51.320;9.456;2023-02-28T05:43:44;3.75;;;1.88;;
70981;SDS011;58640;51.320;9.456;2023-02-28T05:46:10;1.63;;;1.40;;
70981;SDS011;58640;51.320;9.456;2023-02-28T05:48:37;2.55;;;1.40;;
70981;SDS011;58640;51.320;9.456;2023-02-28T05:51:03;2.00;;;1.77;;
70981;SDS011;58640;51.320;9.456;2023-02-28T05:53:30;6.33;;;1.77;;
70981;SDS011;58640;51.320;9.456;2023-02-28T05:55:55;2.37;;;1.40;;
70981;SDS011;58640;51.320;9.456;2023-02-28T05:58:21;1.70;;;1.53;;
70981;SDS011;58640;51.320;9.456;2023-02-28T06:00:47;2.03;;;1.17;;
70981;SDS011;58640;51.320;9.456;2023-02-28T06:03:13;2.90;;;1.77;;
70981;SDS011;58640;51.320;9.456;2023-02-28T06:05:38;2.50;;;1.70;;
70981;SDS011;58640;51.320;9.456;2023-02-28T06:08:04;1.93;;;1.43;;
70981;SDS011;58640;51.320;9.456;2023-02-28T06:10:31;1.37;;;1.27;;
70981;SDS011;58640;51.320;9.456;2023-02-28T06:12:59;4.57;;;1.70;;
70981;SDS011;58640;51.320;9.456;2023-02-28T06:15:25;2.83;;;1.77;;
70981;SDS011;58640;51.320;9.456;2023-02-28T06:17:50;1.70;;;1.60;;
70981;SDS011;58640;51.320;9.456;2023-02-28T06:20:17;1.60;;;1.50;;
70981;SDS011;58640;51.320;9.456;2023-02-28T06:22:42;3.37;;;2.00;;
70981;SDS011;58640;51.320;9.456;2023-02-28T06:25:09;3.43;;;1.70;;
70981;SDS011;58640;51.320;9.456;2023-02-28T06:27:35;5.23;;;1.70;;
70981;SDS011;58640;51.320;9.456;2023-02-28T06:30:00;3.07;;;1.90;;
70981;SDS011;58640;51.320;9.456;2023-02-28T06:32:26;1.73;;;1.60;;
70981;SDS011;58640;51.320;9.456;2023-02-28T06:34:51;5.60;;;1.70;;
70981;SDS011;58640;51.320;9.456;2023-02-28T06:37:17;2.03;;;1.50;;
70981;SDS011;58640;51.320;9.456;2023-02-28T06:39:43;1.60;;;1.50;;
70981;SDS011;58640;51.320;9.456;2023-02-28T06:42:08;2.25;;;1.70;;
70981;SDS011;58640;51.320;9.456;2023-02-28T06:44:33;3.40;;;1.60;;
70981;SDS011;58640;51.320;9.456;2023-02-28T06:47:03;2.15;;;1.90;;
70981;SDS011;58640;51.320;9.456;2023-02-28T06:49:30;1.67;;;1.58;;
70981;SDS011;58640;51.320;9.456;2023-02-28T06:51:57;2.47;;;1.95;;
70981;SDS011;58640;51.320;9.456;2023-02-28T06:54:22;2.20;;;1.80;;
70981;SDS011;58640;51.320;9.456;2023-02-28T06:56:47;2.03;;;1.58;;
70981;SDS011;58640;51.320;9.456;2023-02-28T06:59:13;2.00;;;1.33;;
70981;SDS011;58640;51.320;9.456;2023-02-28T07:01:39;1.90;;;1.80;;
70981;SDS011;58640;51.320;9.456;2023-02-28T07:04:05;5.35;;;1.63;;
70981;SDS011;58640;51.320;9.456;2023-02-28T07:06:31;2.70;;;1.75;;
70981;SDS011;58640;51.320;9.456;2023-02-28T07:08:57;3.25;;;1.60;;
70981;SDS011;58640;51.320;9.456;2023-02-28T07:11:23;5.75;;;1.63;;
70981;SDS011;58640;51.320;9.456;2023-02-28T07:13:51;1.95;;;1.58;;
70981;SDS011;58640;51.320;9.456;2023-02-28T07:16:21;2.60;;;1.50;;
70981;SDS011;58640;51.320;9.456;2023-02-28T07:18:48;2.30;;;1.95;;
70981;SDS011;58640;51.320;9.456;2023-02-28T07:21:13;5.88;;;1.67;;
70981;SDS011;58640;51.320;9.456;2023-02-28T07:23:40;6.85;;;2.35;;
70981;SDS011;58640;51.320;9.456;2023-02-28T07:26:07;2.60;;;1.95;;
70981;SDS011;58640;51.320;9.456;2023-02-28T07:28:36;2.60;;;2.05;;
70981;SDS011;58640;51.320;9.456;2023-02-28T07:31:05;1.95;;;1.75;;
70981;SDS011;58640;51.320;9.456;2023-02-28T07:33:31;4.93;;;2.33;;
70981;SDS011;58640;51.320;9.456;2023-02-28T07:36:00;2.35;;;1.52;;
70981;SDS011;58640;51.320;9.456;2023-02-28T07:38:30;7.10;;;2.17;;
70981;SDS011;58640;51.320;9.456;2023-02-28T07:40:55;4.45;;;1.83;;
70981;SDS011;58640;51.320;9.456;2023-02-28T07:43:20;4.18;;;2.15;;
70981;SDS011;58640;51.320;9.456;2023-02-28T07:45:46;2.65;;;1.70;;
70981;SDS011;58640;51.320;9.456;2023-02-28T07:48:11;1.77;;;1.50;;
70981;SDS011;58640;51.320;9.456;2023-02-28T07:50:36;2.08;;;1.50;;
70981;SDS011;58640;51.320;9.456;2023-02-28T07:53:02;3.00;;;1.50;;
70981;SDS011;58640;51.320;9.456;2023-02-28T07:55:27;2.03;;;1.52;;
70981;SDS011;58640;51.320;9.456;2023-02-28T07:57:53;3.08;;;1.67;;
70981;SDS011;58640;51.320;9.456;2023-02-28T08:00:18;7.38;;;1.60;;
70981;SDS011;58640;51.320;9.456;2023-02-28T08:02:44;2.17;;;1.33;;
70981;SDS011;58640;51.320;9.456;2023-02-28T08:05:09;1.38;;;1.10;;
70981;SDS011;58640;51.320;9.456;2023-02-28T08:07:35;6.05;;;1.38;;
70981;SDS011;58640;51.320;9.456;2023-02-28T08:10:00;9.95;;;1.90;;
70981;SDS011;58640;51.320;9.456;2023-02-28T08:12:25;2.30;;;1.70;;
70981;SDS011;58640;51.320;9.456;2023-02-28T08:14:51;3.58;;;1.60;;
70981;SDS011;58640;51.320;9.456;2023-02-28T08:17:16;3.70;;;2.10;;
70981;SDS011;58640;51.320;9.456;2023-02-28T08:19:42;3.00;;;1.40;;
70981;SDS011;58640;51.320;9.456;2023-02-28T08:22:09;2.65;;;1.63;;
70981;SDS011;58640;51.320;9.456;2023-02-28T08:24:35;3.20;;;1.42;;
70981;SDS011;58640;51.320;9.456;2023-02-28T08:27:00;2.10;;;1.58;;
70981;SDS011;58640;51.320;9.456;2023-02-28T08:29:25;3.72;;;1.38;;
70981;SDS011;58640;51.320;9.456;2023-02-28T08:31:51;1.88;;;1.52;;
70981;SDS011;58640;51.320;9.456;2023-02-28T08:34:16;3.17;;;1.90;;
70981;SDS011;58640;51.320;9.456;2023-02-28T08:36:42;2.72;;;1.83;;
70981;SDS011;58640;51.320;9.456;2023-02-28T08:39:10;3.38;;;2.03;;
70981;SDS011;58640;51.320;9.456;2023-02-28T08:41:36;3.28;;;1.60;;
70981;SDS011;58640;51.320;9.456;2023-02-28T08:44:02;1.83;;;1.60;;
70981;SDS011;58640;51.320;9.456;2023-02-28T08:46:27;2.33;;;2.05;;
70981;SDS011;58640;51.320;9.456;2023-02-28T08:48:54;2.30;;;2.00;;
70981;SDS011;58640;51.320;9.456;2023-02-28T08:51:20;2.75;;;1.85;;
70981;SDS011;58640;51.320;9.456;2023-02-28T08:53:51;3.08;;;1.60;;
70981;SDS011;58640;51.320;9.456;2023-02-28T08:56:20;4.43;;;2.10;;
70981;SDS011;58640;51.320;9.456;2023-02-28T08:58:47;2.53;;;2.00;;
70981;SDS011;58640;51.320;9.456;2023-02-28T09:01:14;2.95;;;1.90;;
70981;SDS011;58640;51.320;9.456;2023-02-28T09:03:44;2.30;;;1.70;;
70981;SDS011;58640;51.320;9.456;2023-02-28T09:06:11;3.20;;;2.28;;
70981;SDS011;58640;51.320;9.456;2023-02-28T09:08:38;5.35;;;2.20;;
70981;SDS011;58640;51.320;9.456;2023-02-28T09:11:04;4.22;;;1.98;;
70981;SDS011;58640;51.320;9.456;2023-02-28T09:13:31;3.10;;;2.28;;
70981;SDS011;58640;51.320;9.456;2023-02-28T09:15:57;3.38;;;2.17;;
70981;SDS011;58640;51.320;9.456;2023-02-28T09:18:25;3.50;;;1.80;;
70981;SDS011;58640;51.320;9.456;2023-02-28T09:20:51;2.65;;;1.83;;
70981;SDS011;58640;51.320;9.456;2023-02-28T09:23:17;2.80;;;1.80;;
70981;SDS011;58640;51.320;9.456;2023-02-28T09:25:50;3.17;;;2.28;;
70981;SDS011;58640;51.320;9.456;2023-02-28T09:28:17;2.80;;;1.83;;
70981;SDS011;58640;51.320;9.456;2023-02-28T09:30:43;2.35;;;1.63;;
70981;SDS011;58640;51.320;9.456;2023-02-28T09:33:10;2.55;;;2.10;;
70981;SDS011;58640;51.320;9.456;2023-02-28T09:35:35;2.67;;;2.13;;
70981;SDS011;58640;51.320;9.456;2023-02-28T09:38:02;2.08;;;1.90;;
70981;SDS011;58640;51.320;9.456;2023-02-28T09:40:28;3.00;;;1.85;;
70981;SDS011;58640;51.320;9.456;2023-02-28T09:42:55;3.42;;;1.92;;
70981;SDS011;58640;51.320;9.456;2023-02-28T09:47:54;4.93;;;2.10;;
70981;SDS011;58640;51.320;9.456;2023-02-28T09:52:52;2.75;;;1.90;;
70981;SDS011;58640;51.320;9.456;2023-02-28T09:55:23;3.42;;;2.13;;
70981;SDS011;58640;51.320;9.456;2023-02-28T09:57:56;5.78;;;1.92;;
70981;SDS011;58640;51.320;9.456;2023-02-28T10:00:27;2.83;;;2.05;;
70981;SDS011;58640;51.320;9.456;2023-02-28T10:06:22;2.50;;;1.85;;
70981;SDS011;58640;51.320;9.456;2023-02-28T10:09:00;2.95;;;1.60;;
70981;SDS011;58640;51.320;9.456;2023-02-28T10:11:49;3.05;;;1.40;;
70981;SDS011;58640;51.320;9.456;2023-02-28T10:14:22;3.10;;;1.90;;
70981;SDS011;58640;51.320;9.456;2023-02-28T10:17:04;2.80;;;1.42;;
70981;SDS011;58640;51.320;9.456;2023-02-28T10:19:42;2.65;;;1.92;;
70981;SDS011;58640;51.320;9.456;2023-02-28T10:22:11;2.08;;;1.80;;
70981;SDS011;58640;51.320;9.456;2023-02-28T10:24:43;3.22;;;1.75;;
70981;SDS011;58640;51.320;9.456;2023-02-28T10:27:18;3.20;;;2.35;;
70981;SDS011;58640;51.320;9.456;2023-02-28T10:29:46;3.63;;;2.30;;
70981;SDS011;58640;51.320;9.456;2023-02-28T10:32:15;2.85;;;2.17;;
70981;SDS011;58640;51.320;9.456;2023-02-28T10:34:51;3.15;;;2.30;;
70981;SDS011;58640;51.320;9.456;2023-02-28T10:37:20;2.67;;;2.42;;
70981;SDS011;58640;51.320;9.456;2023-02-28T10:39:46;2.30;;;2.10;;
70981;SDS011;58640;51.320;9.456;2023-02-28T10:42:21;2.80;;;2.08;;
70981;SDS011;58640;51.320;9.456;2023-02-28T10:45:09;3.45;;;2.72;;
70981;SDS011;58640;51.320;9.456;2023-02-28T10:47:42;3.47;;;2.40;;
70981;SDS011;58640;51.320;9.456;2023-02-28T10:50:46;3.50;;;2.10;;
70981;SDS011;58640;51.320;9.456;2023-02-28T11:01:24;4.65;;;2.90;;
70981;SDS011;58640;51.320;9.456;2023-02-28T11:03:52;4.80;;;2.70;;
70981;SDS011;58640;51.320;9.456;2023-02-28T11:06:22;3.00;;;2.38;;
70981;SDS011;58640;51.320;9.456;2023-02-28T11:08:55;2.42;;;2.15;;
70981;SDS011;58640;51.320;9.456;2023-02-28T11:11:23;2.80;;;2.58;;
70981;SDS011;58640;51.320;9.456;2023-02-28T11:13:52;2.63;;;2.42;;
70981;SDS011;58640;51.320;9.456;2023-02-28T11:16:20;4.47;;;2.60;;
70981;SDS011;58640;51.320;9.456;2023-02-28T11:18:49;4.30;;;2.38;;
70981;SDS011;58640;51.320;9.456;2023-02-28T11:21:22;3.65;;;2.28;;
70981;SDS011;58640;51.320;9.456;2023-02-28T11:23:51;3.53;;;2.55;;
70981;SDS011;58640;51.320;9.456;2023-02-28T11:26:35;4.07;;;2.30;;
70981;SDS011;58640;51.320;9.456;2023-02-28T11:29:10;2.50;;;2.30;;
70981;SDS011;58640;51.320;9.456;2023-02-28T11:31:41;3.58;;;2.22;;
70981;SDS011;58640;51.320;9.456;2023-02-28T11:34:25;4.57;;;2.78;;
70981;SDS011;58640;51.320;9.456;2023-02-28T11:36:53;3.78;;;3.08;;
70981;SDS011;58640;51.320;9.456;2023-02-28T11:39:22;4.20;;;2.78;;
70981;SDS011;58640;51.320;9.456;2023-02-28T11:44:31;2.83;;;2.25;;
70981;SDS011;58640;51.320;9.456;2023-02-28T11:52:48;5.22;;;3.13;;
70981;SDS011;58640;51.320;9.456;2023-02-28T12:09:00;2.83;;;2.63;;
70981;SDS011;58640;51.320;9.456;2023-02-28T12:11:43;2.40;;;2.20;;
70981;SDS011;58640;51.320;9.456;2023-02-28T12:19:17;3.13;;;2.28;;
70981;SDS011;58640;51.320;9.456;2023-02-28T12:27:24;3.65;;;2.72;;
70981;SDS011;58640;51.320;9.456;2023-02-28T12:32:30;3.20;;;2.70;;
70981;SDS011;58640;51.320;9.456;2023-02-28T12:37:34;4.45;;;3.20;;
70981;SDS011;58640;51.320;9.456;2023-02-28T12:40:23;4.03;;;3.08;;
70981;SDS011;58640;51.320;9.456;2023-02-28T12:42:57;3.97;;;3.00;;
70981;SDS011;58640;51.320;9.456;2023-02-28T12:48:14;4.82;;;2.50;;
70981;SDS011;58640;51.320;9.456;2023-02-28T12:50:44;4.57;;;3.00;;
70981;SDS011;58640;51.320;9.456;2023-02-28T12:53:17;5.07;;;2.60;;
70981;SDS011;58640;51.320;9.456;2023-02-28T12:58:45;5.60;;;2.70;;
70981;SDS011;58640;51.320;9.456;2023-02-28T13:09:53;4.50;;;3.15;;
70981;SDS011;58640;51.320;9.456;2023-02-28T13:12:21;6.22;;;3.33;;
70981;SDS011;58640;51.320;9.456;2023-02-28T13:14:48;3.90;;;3.10;;
70981;SDS011;58640;51.320;9.456;2023-02-28T13:17:21;6.45;;;3.20;;
70981;SDS011;58640;51.320;9.456;2023-02-28T13:22:20;5.05;;;3.10;;
70981;SDS011;58640;51.320;9.456;2023-02-28T13:25:00;3.25;;;2.95;;
70981;SDS011;58640;51.320;9.456;2023-02-28T13:27:33;5.72;;;3.30;;
70981;SDS011;58640;51.320;9.456;2023-02-28T13:30:02;4.47;;;3.28;;
70981;SDS011;58640;51.320;9.456;2023-02-28T13:35:48;6.10;;;3.42;;
70981;SDS011;58640;51.320;9.456;2023-02-28T13:38:32;4.28;;;3.08;;
70981;SDS011;58640;51.320;9.456;2023-02-28T13:43:59;5.60;;;3.55;;
70981;SDS011;58640;51.320;9.456;2023-02-28T13:46:27;4.03;;;3.03;;
70981;SDS011;58640;51.320;9.456;2023-02-28T13:48:52;5.03;;;3.58;;
70981;SDS011;58640;51.320;9.456;2023-02-28T13:57:23;3.85;;;3.15;;
70981;SDS011;58640;51.320;9.456;2023-02-28T14:03:03;5.78;;;3.42;;
70981;SDS011;58640;51.320;9.456;2023-02-28T14:06:13;5.93;;;3.85;;
70981;SDS011;58640;51.320;9.456;2023-02-28T14:08:51;4.60;;;3.08;;
70981;SDS011;58640;51.320;9.456;2023-02-28T14:11:25;4.63;;;3.50;;
70981;SDS011;58640;51.320;9.456;2023-02-28T14:13:52;4.00;;;3.33;;
70981;SDS011;58640;51.320;9.456;2023-02-28T14:16:20;4.97;;;3.15;;
70981;SDS011;58640;51.320;9.456;2023-02-28T14:21:27;3.50;;;2.88;;
70981;SDS011;58640;51.320;9.456;2023-02-28T14:26:32;4.95;;;3.40;;
70981;SDS011;58640;51.320;9.456;2023-02-28T14:37:52;3.85;;;3.08;;
70981;SDS011;58640;51.320;9.456;2023-02-28T14:43:02;3.63;;;3.08;;
70981;SDS011;58640;51.320;9.456;2023-02-28T14:45:30;5.80;;;3.53;;
70981;SDS011;58640;51.320;9.456;2023-02-28T14:47:57;5.43;;;3.65;;
70981;SDS011;58640;51.320;9.456;2023-02-28T14:50:26;6.72;;;3.95;;
70981;SDS011;58640;51.320;9.456;2023-02-28T14:52:55;3.72;;;3.17;;
70981;SDS011;58640;51.320;9.456;2023-02-28T14:55:32;8.05;;;3.85;;
70981;SDS011;58640;51.320;9.456;2023-02-28T14:58:02;3.92;;;2.83;;
70981;SDS011;58640;51.320;9.456;2023-02-28T15:00:32;6.03;;;3.33;;
70981;SDS011;58640;51.320;9.456;2023-02-28T15:03:00;4.10;;;3.55;;
70981;SDS011;58640;51.320;9.456;2023-02-28T15:05:30;6.55;;;3.83;;
70981;SDS011;58640;51.320;9.456;2023-02-28T15:08:02;8.80;;;3.75;;
70981;SDS011;58640;51.320;9.456;2023-02-28T15:10:30;5.45;;;3.90;;
70981;SDS011;58640;51.320;9.456;2023-02-28T15:12:57;5.07;;;3.33;;
70981;SDS011;58640;51.320;9.456;2023-02-28T15:15:27;4.82;;;3.80;;
70981;SDS011;58640;51.320;9.456;2023-02-28T15:18:07;6.75;;;3.97;;
70981;SDS011;58640;51.320;9.456;2023-02-28T15:20:41;9.23;;;4.00;;
70981;SDS011;58640;51.320;9.456;2023-02-28T15:23:09;4.85;;;3.38;;
70981;SDS011;58640;51.320;9.456;2023-02-28T15:25:35;6.70;;;4.25;;
70981;SDS011;58640;51.320;9.456;2023-02-28T15:28:00;7.68;;;3.78;;
70981;SDS011;58640;51.320;9.456;2023-02-28T15:30:27;10.80;;;5.40;;
70981;SDS011;58640;51.320;9.456;2023-02-28T15:35:38;5.18;;;3.80;;
70981;SDS011;58640;51.320;9.456;2023-02-28T15:38:13;5.00;;;3.83;;
70981;SDS011;58640;51.320;9.456;2023-02-28T15:40:46;11.60;;;4.32;;
70981;SDS011;58640;51.320;9.456;2023-02-28T15:43:23;5.35;;;3.42;;
70981;SDS011;58640;51.320;9.456;2023-02-28T15:48:30;6.22;;;4.15;;
70981;SDS011;58640;51.320;9.456;2023-02-28T15:51:06;5.90;;;4.40;;
70981;SDS011;58640;51.320;9.456;2023-02-28T15:53:50;7.40;;;4.43;;
70981;SDS011;58640;51.320;9.456;2023-02-28T15:56:26;4.70;;;3.83;;
70981;SDS011;58640;51.320;9.456;2023-02-28T15:59:04;6.13;;;3.60;;
70981;SDS011;58640;51.320;9.456;2023-02-28T16:01:35;5.43;;;3.50;;
70981;SDS011;58640;51.320;9.456;2023-02-28T16:04:03;6.18;;;4.47;;
70981;SDS011;58640;51.320;9.456;2023-02-28T16:06:32;6.90;;;3.92;;
70981;SDS011;58640;51.320;9.456;2023-02-28T16:08:59;8.30;;;4.55;;
70981;SDS011;58640;51.320;9.456;2023-02-28T16:11:25;7.00;;;4.30;;
70981;SDS011;58640;51.320;9.456;2023-02-28T16:13:51;4.93;;;3.80;;
70981;SDS011;58640;51.320;9.456;2023-02-28T16:16:18;5.38;;;3.75;;
70981;SDS011;58640;51.320;9.456;2023-02-28T16:18:45;8.05;;;3.53;;
70981;SDS011;58640;51.320;9.456;2023-02-28T16:21:11;6.40;;;4.13;;
70981;SDS011;58640;51.320;9.456;2023-02-28T16:23:36;7.00;;;4.28;;
70981;SDS011;58640;51.320;9.456;2023-02-28T16:26:02;7.25;;;4.30;;
70981;SDS011;58640;51.320;9.456;2023-02-28T16:28:35;7.38;;;4.25;;
70981;SDS011;58640;51.320;9.456;2023-02-28T16:31:03;5.78;;;4.20;;
70981;SDS011;58640;51.320;9.456;2023-02-28T16:33:33;5.22;;;4.20;;
70981;SDS011;58640;51.320;9.456;2023-02-28T16:35:59;6.72;;;4.80;;
70981;SDS011;58640;51.320;9.456;2023-02-28T16:38:25;4.75;;;4.32;;
70981;SDS011;58640;51.320;9.456;2023-02-28T16:40:51;9.05;;;4.60;;
70981;SDS011;58640;51.320;9.456;2023-02-28T16:43:18;6.95;;;4.43;;
70981;SDS011;58640;51.320;9.456;2023-02-28T16:45:47;6.03;;;4.32;;
70981;SDS011;58640;51.320;9.456;2023-02-28T16:48:14;5.95;;;4.38;;
70981;SDS011;58640;51.320;9.456;2023-02-28T16:50:41;6.63;;;5.70;;
70981;SDS011;58640;51.320;9.456;2023-02-28T16:53:08;5.45;;;4.13;;
70981;SDS011;58640;51.320;9.456;2023-02-28T16:55:34;7.95;;;5.00;;
70981;SDS011;58640;51.320;9.456;2023-02-28T16:58:00;12.07;;;6.88;;
70981;SDS011;58640;51.320;9.456;2023-02-28T17:00:27;6.32;;;4.75;;
70981;SDS011;58640;51.320;9.456;2023-02-28T17:02:55;5.85;;;4.80;;
70981;SDS011;58640;51.320;9.456;2023-02-28T17:05:21;5.95;;;4.32;;
70981;SDS011;58640;51.320;9.456;2023-02-28T17:07:47;8.13;;;4.72;;
70981;SDS011;58640;51.320;9.456;2023-02-28T17:10:21;7.38;;;4.97;;
70981;SDS011;58640;51.320;9.456;2023-02-28T17:12:49;8.48;;;4.80;;
70981;SDS011;58640;51.320;9.456;2023-02-28T17:15:15;14.93;;;5.03;;
70981;SDS011;58640;51.320;9.456;2023-02-28T17:17:42;7.43;;;5.22;;
70981;SDS011;58640;51.320;9.456;2023-02-28T17:20:18;7.90;;;4.72;;